createdAt,value
2019-02-04T00:00:09.210Z,22.57
2019-02-04T00:02:35.887Z,22.58
2019-02-04T00:05:02.539Z,22.54
2019-02-04T00:07:29.198Z,22.53
2019-02-04T00:09:55.899Z,22.57
2019-02-04T00:12:22.570Z,22.56
2019-02-04T00:14:49.229Z,22.53
2019-02-04T00:17:16.112Z,22.54
2019-02-04T00:19:42.774Z,22.55
2019-02-04T00:22:09.427Z,22.56
2019-02-04T00:24:36.098Z,22.58
2019-02-04T00:27:02.754Z,22.55
2019-02-04T00:29:29.468Z,22.50
2019-02-04T00:31:56.120Z,22.54
2019-02-04T00:34:22.780Z,22.53
2019-02-04T00:36:49.453Z,22.57
2019-02-04T00:39:16.157Z,22.57
2019-02-04T00:41:42.855Z,22.54
2019-02-04T00:44:09.519Z,22.57
2019-02-04T00:46:36.207Z,22.53
2019-02-04T00:49:02.864Z,22.49
2019-02-04T00:51:29.574Z,22.53
2019-02-04T00:53:56.237Z,22.49
2019-02-04T00:56:22.937Z,22.49
2019-02-04T00:58:49.605Z,22.45
2019-02-04T01:01:16.265Z,22.51
2019-02-04T01:03:42.923Z,22.50
2019-02-04T01:06:09.623Z,22.50
2019-02-04T01:08:36.285Z,22.54
2019-02-04T01:11:02.955Z,22.46
2019-02-04T01:13:29.640Z,22.50
2019-02-04T01:15:56.300Z,22.49
2019-02-04T01:18:22.927Z,22.48
2019-02-04T01:20:49.607Z,22.45
2019-02-04T01:23:16.245Z,22.48
2019-02-04T01:25:42.893Z,22.48
2019-02-04T01:28:09.531Z,22.44
2019-02-04T01:30:36.212Z,22.44
2019-02-04T01:33:02.847Z,22.50
2019-02-04T01:35:29.531Z,22.41
2019-02-04T01:37:56.281Z,22.43
2019-02-04T01:40:22.929Z,22.46
2019-02-04T01:42:49.575Z,22.46
2019-02-04T01:45:16.225Z,22.44
2019-02-04T01:47:42.877Z,22.45
2019-02-04T01:50:09.576Z,22.43
2019-02-04T01:52:36.217Z,22.44
2019-02-04T01:55:02.902Z,22.42
2019-02-04T01:57:29.553Z,22.44
2019-02-04T01:59:56.364Z,22.39
2019-02-04T02:02:22.999Z,22.41
2019-02-04T02:04:49.644Z,22.41
2019-02-04T02:07:16.296Z,22.42
2019-02-04T02:09:42.955Z,22.42
2019-02-04T02:12:09.597Z,22.44
2019-02-04T02:14:36.283Z,22.41
2019-02-04T02:17:02.936Z,22.40
2019-02-04T02:19:29.677Z,22.43
2019-02-04T02:21:56.266Z,22.41
2019-02-04T02:24:22.904Z,22.42
2019-02-04T02:26:49.591Z,22.42
2019-02-04T02:29:16.238Z,22.38
2019-02-04T02:31:42.880Z,22.38
2019-02-04T02:34:09.521Z,22.39
2019-02-04T02:36:36.151Z,22.38
2019-02-04T02:39:02.799Z,22.38
2019-02-04T02:41:29.532Z,22.39
2019-02-04T02:43:56.188Z,22.42
2019-02-04T02:46:22.840Z,22.40
2019-02-04T02:48:49.533Z,22.38
2019-02-04T02:51:16.212Z,22.39
2019-02-04T02:53:42.840Z,22.36
2019-02-04T02:56:09.493Z,22.36
2019-02-04T02:58:36.139Z,22.35
2019-02-04T03:01:02.819Z,22.35
2019-02-04T03:03:29.460Z,22.38
2019-02-04T03:05:56.114Z,22.37
2019-02-04T03:08:22.753Z,22.38
2019-02-04T03:10:49.438Z,22.40
2019-02-04T03:13:16.125Z,22.36
2019-02-04T03:15:42.787Z,22.38
2019-02-04T03:18:09.450Z,22.39
2019-02-04T03:20:36.129Z,22.42
2019-02-04T03:23:02.774Z,22.37
2019-02-04T03:25:29.452Z,22.35
2019-02-04T03:27:56.094Z,22.37
2019-02-04T03:30:22.743Z,22.34
2019-02-04T03:32:49.474Z,22.36
2019-02-04T03:35:16.127Z,22.33
2019-02-04T03:37:42.865Z,22.36
2019-02-04T03:40:09.431Z,22.35
2019-02-04T03:42:36.116Z,22.36
2019-02-04T03:45:02.860Z,22.34
2019-02-04T03:47:29.510Z,22.34
2019-02-04T03:49:56.150Z,22.32
2019-02-04T03:52:22.792Z,22.30
2019-02-04T03:54:49.440Z,22.36
2019-02-04T03:57:16.119Z,22.35
2019-02-04T03:59:42.763Z,22.31
2019-02-04T04:02:09.411Z,22.34
2019-02-04T04:04:36.071Z,22.28
2019-02-04T04:07:02.747Z,22.38
2019-02-04T04:09:29.384Z,22.03
2019-02-04T04:11:56.069Z,21.71
2019-02-04T04:14:22.711Z,21.37
2019-02-04T04:16:49.348Z,21.16
2019-02-04T04:19:16.017Z,21.14
2019-02-04T04:21:42.705Z,21.47
2019-02-04T04:24:09.344Z,21.25
2019-02-04T04:26:35.985Z,21.26
2019-02-04T04:29:02.649Z,21.44
2019-02-04T04:31:29.341Z,21.45
2019-02-04T04:33:55.983Z,21.52
2019-02-04T04:36:22.620Z,21.75
2019-02-04T04:38:49.286Z,21.84
2019-02-04T04:41:15.929Z,21.93
2019-02-04T04:43:42.720Z,21.97
2019-02-04T04:46:09.294Z,22.01
2019-02-04T04:48:35.951Z,22.10
2019-02-04T04:51:02.598Z,22.16
2019-02-04T04:53:29.257Z,22.13
2019-02-04T04:55:55.898Z,22.17
2019-02-04T04:58:22.549Z,22.20
2019-02-04T05:00:49.195Z,22.17
2019-02-04T05:03:15.852Z,22.20
2019-02-04T05:05:42.484Z,22.31
2019-02-04T05:08:09.131Z,22.31
2019-02-04T05:10:39.205Z,22.34
2019-02-04T05:13:05.845Z,22.26
2019-02-04T05:15:32.514Z,22.30
2019-02-04T05:17:59.158Z,22.35
2019-02-04T05:20:25.797Z,22.54
2019-02-04T05:22:52.436Z,22.46
2019-02-04T05:25:19.077Z,22.38
2019-02-04T05:27:45.734Z,22.35
2019-02-04T05:30:12.380Z,22.31
2019-02-04T05:32:39.031Z,22.52
2019-02-04T05:35:05.682Z,22.32
2019-02-04T05:37:32.324Z,22.26
2019-02-04T05:39:58.982Z,22.25
2019-02-04T05:42:25.722Z,22.26
2019-02-04T05:44:52.377Z,22.20
2019-02-04T05:47:19.029Z,22.25
2019-02-04T05:49:45.681Z,22.28
2019-02-04T05:52:12.326Z,22.25
2019-02-04T05:54:38.991Z,22.28
2019-02-04T05:57:05.637Z,22.39
2019-02-04T05:59:32.318Z,22.40
2019-02-04T06:01:58.956Z,22.32
2019-02-04T06:04:25.671Z,22.40
2019-02-04T06:06:52.311Z,22.36
2019-02-04T06:09:18.949Z,22.38
2019-02-04T06:11:46.991Z,22.38
2019-02-04T06:14:12.253Z,22.47
2019-02-04T06:16:38.901Z,22.48
2019-02-04T06:19:05.567Z,22.46
2019-02-04T06:21:32.204Z,22.50
2019-02-04T06:23:58.869Z,22.48
2019-02-04T06:26:25.529Z,22.56
2019-02-04T06:28:52.160Z,22.69
2019-02-04T06:31:18.810Z,22.57
2019-02-04T06:33:45.556Z,22.60
2019-02-04T06:36:12.098Z,22.59
2019-02-04T06:38:38.746Z,22.56
2019-02-04T06:41:05.387Z,22.61
2019-02-04T06:43:32.044Z,22.62
2019-02-04T06:45:58.689Z,22.60
2019-02-04T06:48:25.329Z,22.60
2019-02-04T06:50:51.989Z,22.64
2019-02-04T06:53:18.628Z,22.70
2019-02-04T06:55:45.278Z,22.89
2019-02-04T06:58:11.980Z,23.01
2019-02-04T07:00:38.630Z,22.84
2019-02-04T07:03:05.330Z,22.81
2019-02-04T07:05:43.141Z,22.86
2019-02-04T07:07:58.647Z,22.77
2019-02-04T07:10:25.299Z,22.79
2019-02-04T07:12:51.954Z,22.89
2019-02-04T07:15:18.590Z,22.79
2019-02-04T07:17:45.287Z,23.00
2019-02-04T07:20:12.054Z,22.93
2019-02-04T07:22:38.683Z,22.88
2019-02-04T07:25:05.357Z,22.90
2019-02-04T07:27:32.020Z,22.97
2019-02-04T07:29:58.783Z,22.93
2019-02-04T07:32:25.458Z,22.91
2019-02-04T07:34:52.145Z,22.95
2019-02-04T07:37:18.794Z,22.99
2019-02-04T07:39:45.438Z,23.13
2019-02-04T07:42:15.194Z,23.04
2019-02-04T07:44:41.903Z,23.17
2019-02-04T07:47:08.738Z,23.03
2019-02-04T07:49:35.690Z,23.13
2019-02-04T07:52:02.046Z,23.14
2019-02-04T07:54:28.739Z,23.42
2019-02-04T07:56:55.429Z,23.38
2019-02-04T07:59:22.081Z,23.36
2019-02-04T08:01:48.789Z,23.39
2019-02-04T08:04:15.466Z,23.44
2019-02-04T08:06:42.106Z,23.33
2019-02-04T08:09:08.748Z,23.36
2019-02-04T08:11:35.429Z,23.36
2019-02-04T08:14:02.081Z,23.45
2019-02-04T08:16:28.738Z,23.57
2019-02-04T08:18:55.429Z,23.62
2019-02-04T08:21:22.536Z,23.59
2019-02-04T08:23:49.191Z,23.48
2019-02-04T08:26:15.842Z,23.49
2019-02-04T08:28:42.484Z,23.49
2019-02-04T08:31:09.198Z,23.53
2019-02-04T08:33:35.851Z,23.63
2019-02-04T08:36:02.578Z,23.94
2019-02-04T08:38:29.231Z,23.69
2019-02-04T08:40:55.881Z,23.59
2019-02-04T08:43:22.593Z,23.55
2019-02-04T08:45:49.246Z,23.76
2019-02-04T08:48:15.891Z,23.75
2019-02-04T08:50:42.567Z,23.63
2019-02-04T08:53:09.221Z,23.72
2019-02-04T08:55:35.883Z,23.70
2019-02-04T08:58:02.546Z,23.69
2019-02-04T09:00:29.229Z,23.63
2019-02-04T09:02:55.868Z,23.85
2019-02-04T09:05:22.526Z,23.87
2019-02-04T09:07:49.632Z,23.91
2019-02-04T09:10:16.280Z,24.04
2019-02-04T09:12:42.936Z,24.15
2019-02-04T09:15:09.601Z,24.14
2019-02-04T09:17:36.298Z,24.27
2019-02-04T09:20:09.823Z,24.25
2019-02-04T09:22:29.594Z,24.33
2019-02-04T09:24:56.249Z,24.33
2019-02-04T09:27:23.022Z,24.43
2019-02-04T09:29:49.683Z,24.46
2019-02-04T09:32:16.394Z,24.36
2019-02-04T09:34:43.071Z,24.40
2019-02-04T09:37:09.761Z,24.39
2019-02-04T09:39:36.538Z,24.40
2019-02-04T09:42:03.238Z,24.33
2019-02-04T09:44:29.927Z,24.37
2019-02-04T09:46:56.688Z,24.38
2019-02-04T09:49:23.383Z,24.38
2019-02-04T09:51:50.054Z,24.49
2019-02-04T09:54:16.807Z,24.54
2019-02-04T09:56:43.492Z,24.45
2019-02-04T09:59:10.158Z,24.51
2019-02-04T10:01:36.798Z,24.75
2019-02-04T10:04:03.448Z,24.34
2019-02-04T10:06:30.142Z,24.10
2019-02-04T10:08:56.897Z,24.24
2019-02-04T10:11:23.571Z,24.35
2019-02-04T10:13:50.237Z,24.35
2019-02-04T10:16:16.921Z,24.43
2019-02-04T10:18:43.567Z,24.47
2019-02-04T10:21:10.331Z,24.48
2019-02-04T10:23:36.914Z,24.56
2019-02-04T10:26:03.572Z,24.58
2019-02-04T10:28:30.204Z,24.40
2019-02-04T10:30:56.886Z,24.48
2019-02-04T10:33:23.568Z,24.52
2019-02-04T10:35:50.257Z,24.51
2019-02-04T10:38:16.918Z,24.62
2019-02-04T10:40:43.610Z,24.56
2019-02-04T10:43:10.217Z,24.67
2019-02-04T10:45:36.963Z,24.58
2019-02-04T10:48:03.617Z,24.68
2019-02-04T10:50:30.223Z,24.68
2019-02-04T10:52:56.878Z,24.70
2019-02-04T10:55:23.559Z,24.72
2019-02-04T10:57:50.253Z,24.76
2019-02-04T11:00:16.836Z,24.63
2019-02-04T11:02:43.490Z,24.77
2019-02-04T11:05:10.136Z,24.85
2019-02-04T11:07:36.815Z,24.82
2019-02-04T11:10:04.688Z,24.81
2019-02-04T11:12:30.155Z,24.84
2019-02-04T11:14:56.810Z,24.99
2019-02-04T11:17:23.508Z,25.00
2019-02-04T11:19:50.202Z,25.08
2019-02-04T11:22:16.856Z,25.08
2019-02-04T11:24:43.610Z,25.02
2019-02-04T11:27:10.368Z,25.02
2019-02-04T11:29:36.882Z,25.05
2019-02-04T11:32:03.586Z,25.09
2019-02-04T11:34:30.247Z,25.19
2019-02-04T11:36:56.881Z,25.02
2019-02-04T11:39:23.566Z,25.05
2019-02-04T11:41:50.315Z,25.12
2019-02-04T11:44:16.971Z,25.13
2019-02-04T11:46:43.778Z,25.02
2019-02-04T11:49:10.294Z,25.08
2019-02-04T11:51:36.895Z,25.11
2019-02-04T11:54:03.543Z,25.29
2019-02-04T11:56:30.235Z,25.27
2019-02-04T11:58:56.886Z,25.24
2019-02-04T12:01:23.555Z,25.21
2019-02-04T12:03:50.217Z,25.38
2019-02-04T12:06:17.572Z,25.30
2019-02-04T12:08:43.562Z,25.35
2019-02-04T12:11:10.207Z,25.41
2019-02-04T12:13:36.889Z,25.38
2019-02-04T12:16:03.540Z,25.39
2019-02-04T12:18:30.189Z,25.50
2019-02-04T12:20:56.955Z,25.43
2019-02-04T12:23:23.606Z,25.31
2019-02-04T12:25:50.264Z,25.55
2019-02-04T12:28:16.933Z,25.64
2019-02-04T12:30:43.658Z,25.53
2019-02-04T12:33:10.448Z,25.59
2019-02-04T12:35:37.088Z,25.60
2019-02-04T12:38:03.792Z,25.60
2019-02-04T12:40:30.484Z,25.60
2019-02-04T12:42:57.148Z,25.52
2019-02-04T12:45:23.837Z,25.64
2019-02-04T12:47:50.496Z,25.54
2019-02-04T12:50:17.152Z,25.58
2019-02-04T12:52:43.931Z,25.57
2019-02-04T12:55:13.633Z,25.58
2019-02-04T12:57:40.302Z,25.64
2019-02-04T13:00:06.953Z,25.53
2019-02-04T13:02:33.638Z,25.58
2019-02-04T13:05:00.429Z,25.60
2019-02-04T13:07:26.964Z,25.42
2019-02-04T13:09:53.606Z,25.40
2019-02-04T13:12:20.261Z,25.43
2019-02-04T13:14:48.229Z,25.66
2019-02-04T13:17:13.611Z,25.58
2019-02-04T13:19:40.290Z,25.52
2019-02-04T13:22:06.957Z,25.50
2019-02-04T13:24:33.608Z,25.46
2019-02-04T13:27:00.263Z,25.41
2019-02-04T13:29:26.959Z,25.31
2019-02-04T13:31:53.612Z,25.26
2019-02-04T13:34:20.276Z,25.21
2019-02-04T13:36:46.938Z,25.31
2019-02-04T13:39:15.769Z,25.20
2019-02-04T13:41:42.463Z,25.20
2019-02-04T13:44:09.142Z,25.04
2019-02-04T13:46:35.835Z,25.05
2019-02-04T13:49:02.584Z,25.08
2019-02-04T13:51:30.451Z,25.18
2019-02-04T13:53:57.283Z,25.01
2019-02-04T13:56:22.644Z,24.76
2019-02-04T13:58:49.299Z,24.68
2019-02-04T14:01:15.949Z,24.97
2019-02-04T14:03:42.593Z,25.06
2019-02-04T14:06:09.237Z,24.90
2019-02-04T14:08:35.889Z,24.81
2019-02-04T14:11:02.547Z,24.74
2019-02-04T14:13:29.182Z,24.92
2019-02-04T14:15:55.880Z,24.84
2019-02-04T14:18:26.319Z,24.62
2019-02-04T14:20:49.382Z,24.77
2019-02-04T14:23:16.089Z,24.73
2019-02-04T14:25:42.772Z,24.68
2019-02-04T14:28:09.361Z,24.65
2019-02-04T14:30:36.012Z,24.59
2019-02-04T14:33:02.776Z,24.71
2019-02-04T14:35:29.419Z,24.82
2019-02-04T14:37:56.083Z,24.60
2019-02-04T14:40:22.722Z,24.57
2019-02-04T14:42:49.393Z,24.58
2019-02-04T14:45:16.062Z,24.82
2019-02-04T14:47:42.696Z,24.62
2019-02-04T14:50:09.401Z,24.55
2019-02-04T14:52:36.058Z,24.38
2019-02-04T14:55:02.706Z,24.27
2019-02-04T14:57:29.406Z,24.24
2019-02-04T14:59:56.096Z,24.17
2019-02-04T15:02:22.768Z,24.37
2019-02-04T15:04:49.594Z,24.28
2019-02-04T15:07:16.248Z,24.14
2019-02-04T15:09:42.932Z,24.06
2019-02-04T15:12:09.613Z,24.09
2019-02-04T15:14:36.697Z,24.20
2019-02-04T15:17:03.335Z,24.12
2019-02-04T15:19:30.021Z,24.12
2019-02-04T15:21:56.687Z,24.11
2019-02-04T15:24:23.342Z,24.14
2019-02-04T15:26:50.146Z,24.33
2019-02-04T15:29:16.782Z,24.15
2019-02-04T15:31:43.459Z,24.23
2019-02-04T15:34:10.103Z,24.20
2019-02-04T15:36:36.851Z,24.19
2019-02-04T15:39:03.503Z,24.16
2019-02-04T15:41:32.793Z,24.11
2019-02-04T15:43:56.889Z,24.12
2019-02-04T15:46:23.648Z,24.05
2019-02-04T15:48:50.332Z,24.12
2019-02-04T15:51:16.982Z,24.14
2019-02-04T15:53:43.670Z,24.23
2019-02-04T15:56:10.486Z,24.15
2019-02-04T15:58:37.132Z,24.05
2019-02-04T16:01:04.802Z,24.07
2019-02-04T16:03:30.433Z,23.99
2019-02-04T16:05:57.087Z,23.98
2019-02-04T16:08:23.740Z,23.98
2019-02-04T16:10:50.433Z,23.90
2019-02-04T16:13:17.080Z,23.88
2019-02-04T16:15:43.786Z,23.81
2019-02-04T16:18:10.429Z,23.86
2019-02-04T16:20:37.191Z,23.93
2019-02-04T16:23:03.904Z,23.87
2019-02-04T16:25:30.544Z,23.80
2019-02-04T16:27:57.187Z,23.82
2019-02-04T16:30:23.956Z,23.76
2019-02-04T16:32:52.843Z,23.82
2019-02-04T16:35:17.278Z,23.76
2019-02-04T16:37:43.932Z,23.75
2019-02-04T16:40:10.620Z,23.73
2019-02-04T16:42:37.257Z,23.68
2019-02-04T16:45:03.907Z,23.70
2019-02-04T16:47:30.569Z,23.77
2019-02-04T16:49:57.205Z,23.70
2019-02-04T16:52:23.845Z,23.81
2019-02-04T16:54:50.489Z,23.65
2019-02-04T16:57:17.137Z,23.63
2019-02-04T16:59:43.878Z,23.61
2019-02-04T17:02:10.556Z,23.61
2019-02-04T17:04:37.232Z,23.56
2019-02-04T17:07:03.915Z,23.54
2019-02-04T17:09:30.553Z,23.50
2019-02-04T17:11:57.196Z,23.53
2019-02-04T17:14:23.849Z,23.50
2019-02-04T17:16:50.495Z,23.52
2019-02-04T17:19:17.137Z,23.49
2019-02-04T17:21:43.773Z,23.45
2019-02-04T17:24:10.431Z,23.49
2019-02-04T17:26:37.077Z,23.47
2019-02-04T17:29:03.793Z,23.42
2019-02-04T17:31:30.453Z,23.45
2019-02-04T17:33:57.132Z,23.44
2019-02-04T17:36:23.773Z,23.44
2019-02-04T17:38:50.465Z,23.49
2019-02-04T17:41:17.102Z,23.42
2019-02-04T17:43:43.786Z,23.38
2019-02-04T17:46:10.424Z,23.35
2019-02-04T17:48:37.070Z,23.36
2019-02-04T17:51:03.712Z,23.36
2019-02-04T17:53:34.277Z,23.33
2019-02-04T17:55:57.072Z,23.35
2019-02-04T17:58:23.716Z,23.31
2019-02-04T18:00:50.403Z,23.32
2019-02-04T18:03:17.082Z,23.33
2019-02-04T18:05:43.733Z,23.31
2019-02-04T18:08:10.373Z,23.33
2019-02-04T18:10:37.023Z,23.31
2019-02-04T18:13:03.665Z,23.29
2019-02-04T18:15:30.302Z,23.29
2019-02-04T18:17:56.964Z,23.28
2019-02-04T18:20:23.600Z,23.26
2019-02-04T18:22:50.311Z,23.21
2019-02-04T18:25:16.949Z,23.20
2019-02-04T18:27:43.618Z,23.18
2019-02-04T18:30:10.256Z,23.14
2019-02-04T18:32:36.898Z,23.19
2019-02-04T18:35:03.590Z,23.17
2019-02-04T18:37:30.281Z,23.17
2019-02-04T18:39:56.917Z,23.13
2019-02-04T18:42:23.552Z,23.11
2019-02-04T18:44:50.292Z,23.09
2019-02-04T18:47:16.880Z,23.14
2019-02-04T18:49:43.544Z,23.08
2019-02-04T18:52:10.226Z,23.05
2019-02-04T18:54:36.868Z,23.10
2019-02-04T18:57:03.511Z,23.07
2019-02-04T18:59:30.165Z,22.99
2019-02-04T19:01:56.853Z,23.02
2019-02-04T19:04:23.491Z,22.97
2019-02-04T19:06:50.125Z,23.01
2019-02-04T19:09:16.811Z,23.03
2019-02-04T19:11:43.487Z,22.92
2019-02-04T19:14:10.124Z,22.90
2019-02-04T19:16:36.793Z,22.88
2019-02-04T19:19:03.429Z,22.85
2019-02-04T19:21:30.116Z,22.83
2019-02-04T19:23:56.766Z,22.84
2019-02-04T19:26:23.408Z,22.80
2019-02-04T19:28:50.991Z,22.79
2019-02-04T19:31:16.776Z,22.75
2019-02-04T19:33:43.461Z,22.83
2019-02-04T19:36:11.376Z,22.78
2019-02-04T19:38:36.756Z,22.72
2019-02-04T19:41:03.399Z,22.73
2019-02-04T19:43:30.042Z,22.73
2019-02-04T19:45:56.685Z,22.66
2019-02-04T19:48:23.341Z,22.72
2019-02-04T19:50:49.984Z,22.67
2019-02-04T19:53:16.662Z,22.66
2019-02-04T19:55:43.340Z,22.67
2019-02-04T19:58:09.993Z,22.68
2019-02-04T20:00:36.644Z,22.65
2019-02-04T20:03:03.287Z,22.64
2019-02-04T20:05:29.943Z,22.62
2019-02-04T20:07:56.607Z,22.59
2019-02-04T20:10:23.253Z,22.57
2019-02-04T20:12:49.903Z,22.58
2019-02-04T20:15:16.597Z,22.58
2019-02-04T20:17:43.239Z,22.56
2019-02-04T20:20:09.898Z,22.53
2019-02-04T20:22:36.577Z,22.51
2019-02-04T20:25:03.219Z,22.52
2019-02-04T20:27:29.902Z,22.49
2019-02-04T20:29:56.555Z,22.51
2019-02-04T20:32:23.234Z,22.46
2019-02-04T20:34:49.871Z,22.45
2019-02-04T20:37:16.511Z,22.43
2019-02-04T20:39:43.156Z,22.48
2019-02-04T20:42:09.842Z,22.46
2019-02-04T20:44:36.484Z,22.44
2019-02-04T20:47:03.122Z,22.41
2019-02-04T20:49:29.776Z,22.38
2019-02-04T20:51:56.430Z,22.37
2019-02-04T20:54:23.111Z,22.37
2019-02-04T20:56:49.766Z,22.38
2019-02-04T20:59:16.412Z,22.34
2019-02-04T21:01:43.047Z,22.32
2019-02-04T21:04:09.727Z,22.32
2019-02-04T21:06:36.403Z,22.36
2019-02-04T21:09:03.054Z,22.30
2019-02-04T21:11:29.697Z,22.30
2019-02-04T21:13:56.342Z,22.30
2019-02-04T21:16:22.990Z,22.26
2019-02-04T21:18:49.719Z,22.24
2019-02-04T21:21:16.357Z,22.23
2019-02-04T21:23:43.009Z,22.22
2019-02-04T21:26:09.652Z,22.18
2019-02-04T21:28:37.549Z,22.21
2019-02-04T21:31:02.970Z,22.20
2019-02-04T21:33:29.613Z,22.18
2019-02-04T21:35:56.298Z,22.19
2019-02-04T21:38:25.584Z,22.15
2019-02-04T21:40:49.613Z,22.14
2019-02-04T21:43:16.250Z,22.17
2019-02-04T21:45:42.895Z,22.13
2019-02-04T21:48:09.666Z,22.11
2019-02-04T21:50:36.209Z,22.09
2019-02-04T21:53:02.852Z,22.14
2019-02-04T21:55:29.495Z,22.11
2019-02-04T21:57:56.149Z,22.12
2019-02-04T22:00:22.827Z,22.06
2019-02-04T22:02:49.476Z,22.04
2019-02-04T22:05:16.146Z,22.06
2019-02-04T22:07:42.790Z,22.06
2019-02-04T22:10:09.429Z,22.05
2019-02-04T22:12:36.113Z,22.03
2019-02-04T22:15:02.762Z,22.04
2019-02-04T22:17:29.470Z,22.05
2019-02-04T22:19:56.131Z,22.05
2019-02-04T22:22:22.778Z,21.98
2019-02-04T22:24:49.462Z,21.97
2019-02-04T22:27:16.149Z,21.98
2019-02-04T22:29:42.794Z,21.96
2019-02-04T22:32:09.437Z,21.96
2019-02-04T22:34:36.097Z,21.98
2019-02-04T22:37:02.737Z,21.93
2019-02-04T22:39:29.387Z,21.96
2019-02-04T22:41:56.031Z,21.90
2019-02-04T22:44:22.730Z,21.89
2019-02-04T22:46:49.423Z,21.89
2019-02-04T22:49:16.097Z,21.86
2019-02-04T22:51:42.734Z,21.88
2019-02-04T22:54:09.463Z,21.85
2019-02-04T22:56:36.146Z,21.83
2019-02-04T22:59:02.789Z,21.84
2019-02-04T23:01:29.479Z,21.82
2019-02-04T23:03:56.206Z,21.87
2019-02-04T23:06:22.783Z,21.82
2019-02-04T23:08:49.424Z,21.79
2019-02-04T23:11:16.065Z,21.82
2019-02-04T23:13:42.716Z,21.78
2019-02-04T23:16:09.375Z,21.80
2019-02-04T23:18:36.091Z,21.76
2019-02-04T23:21:02.699Z,21.76
2019-02-04T23:23:29.381Z,21.76
2019-02-04T23:25:56.025Z,21.77
2019-02-04T23:28:22.661Z,21.75
2019-02-04T23:30:49.348Z,21.72
2019-02-04T23:33:15.985Z,21.68
2019-02-04T23:35:42.627Z,21.70
2019-02-04T23:38:09.278Z,21.66
2019-02-04T23:40:35.929Z,21.68
2019-02-04T23:43:02.569Z,21.67
2019-02-04T23:45:29.220Z,21.67
2019-02-04T23:47:55.859Z,21.69
2019-02-04T23:50:22.598Z,21.65
2019-02-04T23:52:49.240Z,21.61
2019-02-04T23:55:15.877Z,21.59
2019-02-04T23:57:42.525Z,21.59
